Time;durP1;ratioP1;P1;durP2;ratioP2;P2;SDS_P1;SDS_P2;PMS_P1;PMS_P2;Temp;Humidity;BMP_temperature;BMP_pressure;BME280_temperature;BME280_humidity;BME280_pressure;Samples;Min_cycle;Max_cycle;Signal;HPM_P1;HPM_P2
2021/07/15 00:01:37;;;;;;;0.50;0.40;;;;;;;14.81;96.56;98301.06;5055207;28;20032;-66
2021/07/15 00:04:03;;;;;;;0.43;0.30;;;;;;;14.63;97.65;98295.78;5036347;28;20499;-66
2021/07/15 00:06:28;;;;;;;4.22;0.35;;;;;;;14.56;99.31;98298.63;5038498;28;20041;-67
2021/07/15 00:08:55;;;;;;;1.42;0.40;;;;;;;14.51;99.90;98297.69;5051340;28;20036;-67
2021/07/15 00:11:24;;;;;;;0.50;0.40;;;;;;;14.44;100.00;98295.13;5054358;28;20111;-67
2021/07/15 00:13:50;;;;;;;2.85;0.50;;;;;;;14.43;100.00;98290.72;5054530;28;20025;-67
2021/07/15 00:16:16;;;;;;;0.88;0.38;;;;;;;14.55;100.00;98297.00;5055171;28;20041;-67
2021/07/15 00:18:45;;;;;;;0.20;0.20;;;;;;;14.56;100.00;98293.19;5053570;28;20044;-67
2021/07/15 00:21:14;;;;;;;0.20;0.20;;;;;;;14.59;100.00;98286.44;5035277;28;20024;-67
2021/07/15 00:23:40;;;;;;;0.43;0.30;;;;;;;14.55;100.00;98282.56;5054442;28;20170;-66
2021/07/15 00:26:07;;;;;;;0.98;0.30;;;;;;;14.61;100.00;98287.03;5053986;28;20021;-67
2021/07/15 00:28:36;;;;;;;0.20;0.20;;;;;;;14.65;100.00;98286.31;5054962;28;20025;-67
2021/07/15 00:31:02;;;;;;;2.83;0.30;;;;;;;14.60;99.08;98288.94;5054962;28;20424;-67
2021/07/15 00:33:30;;;;;;;0.52;0.20;;;;;;;14.65;98.64;98280.88;5053563;28;20104;-67
2021/07/15 00:35:56;;;;;;;2.92;0.73;;;;;;;14.68;98.92;98285.00;5053552;28;20029;-66
2021/07/15 00:38:22;;;;;;;0.43;0.20;;;;;;;14.63;98.14;98283.00;5055018;28;20544;-67
2021/07/15 00:40:47;;;;;;;0.75;0.20;;;;;;;14.58;98.38;98273.91;5053413;28;20037;-67
2021/07/15 00:43:13;;;;;;;0.13;0.13;;;;;;;14.61;98.36;98287.03;5053878;28;20053;-67
2021/07/15 00:45:38;;;;;;;0.95;0.20;;;;;;;14.57;99.17;98280.44;5053719;28;20029;-67
2021/07/15 00:48:04;;;;;;;1.95;0.20;;;;;;;14.56;99.39;98279.59;5054396;28;20024;-67
2021/07/15 00:50:30;;;;;;;0.47;0.20;;;;;;;14.53;100.00;98274.63;5053955;28;20078;-67
2021/07/15 00:52:56;;;;;;;1.17;0.20;;;;;;;14.51;99.92;98268.56;5037887;28;20096;-67
2021/07/15 00:55:26;;;;;;;0.30;0.10;;;;;;;14.55;99.06;98277.94;5042201;28;20092;-66
2021/07/15 00:57:52;;;;;;;1.08;0.38;;;;;;;14.53;99.97;98277.34;5052462;28;20115;-67
2021/07/15 01:00:19;;;;;;;3.30;0.32;;;;;;;14.47;99.50;98262.78;5053474;28;20107;-67
2021/07/15 01:02:45;;;;;;;0.63;0.25;;;;;;;14.53;100.00;98265.63;5053756;28;20032;-67
2021/07/15 01:05:14;;;;;;;0.20;0.20;;;;;;;14.54;99.57;98262.69;5054226;28;20028;-67
2021/07/15 01:07:39;;;;;;;0.57;0.15;;;;;;;14.52;98.98;98251.19;5052014;28;20041;-67
2021/07/15 01:10:06;;;;;;;3.53;0.30;;;;;;;14.54;98.82;98246.34;5053395;28;20111;-67
2021/07/15 01:12:47;;;;;;;0.47;0.22;;;;;;;14.54;99.35;98257.25;5052913;28;20033;-67
2021/07/15 01:15:19;;;;;;;0.40;0.20;;;;;;;14.53;99.52;98255.56;5054013;28;20036;-67
2021/07/15 01:18:06;;;;;;;0.20;0.20;;;;;;;14.50;99.67;98258.75;5053132;28;20029;-66
2021/07/15 01:21:09;;;;;;;0.40;0.20;;;;;;;14.46;100.00;98260.28;5053568;28;20032;-67
2021/07/15 01:24:21;;;;;;;0.50;0.30;;;;;;;14.44;100.00;98249.66;5046073;28;20020;-67
2021/07/15 01:27:12;;;;;;;0.10;0.10;;;;;;;14.53;100.00;98255.56;5053398;28;20013;-67
2021/07/15 01:30:14;;;;;;;0.65;0.10;;;;;;;14.53;100.00;98260.19;5033817;28;20033;-66
2021/07/15 01:32:46;;;;;;;0.25;0.15;;;;;;;14.57;100.00;98261.38;5016142;28;20026;-66
2021/07/15 01:35:15;;;;;;;1.02;0.15;;;;;;;14.58;99.89;98261.13;5049284;28;20036;-67
2021/07/15 01:37:44;;;;;;;1.08;0.20;;;;;;;14.59;99.98;98251.91;5050566;28;20390;-67
2021/07/15 01:40:10;;;;;;;;;;;;;;;14.61;98.74;98252.47;5053421;28;20059;-67
2021/07/15 01:42:38;;;;;;;0.98;0.32;;;;;;;14.56;99.12;98257.81;5053268;28;20286;-67
2021/07/15 01:45:04;;;;;;;0.30;0.20;;;;;;;14.64;99.54;98260.13;5052871;28;20082;-66
2021/07/15 01:47:30;;;;;;;2.85;0.20;;;;;;;14.64;99.07;98254.69;5052828;28;20031;-66
2021/07/15 01:49:58;;;;;;;1.35;0.10;;;;;;;14.68;97.68;98249.59;5053103;28;20457;-65
2021/07/15 01:52:24;;;;;;;0.20;0.10;;;;;;;14.71;97.62;98248.28;5049738;28;20056;-65
2021/07/15 01:54:51;;;;;;;2.28;0.22;;;;;;;14.71;97.06;98256.47;5120044;22;20020;-70
2021/07/15 01:57:18;;;;;;;1.30;0.20;;;;;;;14.61;97.62;98240.75;5041063;28;20057;-71
2021/07/15 01:59:45;;;;;;;0.10;0.10;;;;;;;14.60;99.68;98252.72;5053428;28;20020;-71
2021/07/15 02:02:11;;;;;;;0.57;0.20;;;;;;;14.66;98.26;98249.84;5053261;28;20029;-71
2021/07/15 02:04:39;;;;;;;0.25;0.15;;;;;;;14.62;99.29;98267.75;5035134;28;20035;-71
2021/07/15 02:07:06;;;;;;;2.92;0.10;;;;;;;14.54;98.93;98259.13;5052629;28;20020;-71
2021/07/15 02:09:35;;;;;;;0.25;0.20;;;;;;;14.43;100.00;98244.44;5052873;28;20060;-71
2021/07/15 02:12:00;;;;;;;0.10;0.10;;;;;;;14.43;100.00;98245.28;5052940;28;20025;-69
2021/07/15 02:14:27;;;;;;;0.55;0.08;;;;;;;14.44;99.72;98248.84;5034919;28;20048;-70
2021/07/15 02:16:56;;;;;;;0.30;0.20;;;;;;;14.45;97.88;98239.59;5052681;28;20033;-72
2021/07/15 02:19:22;;;;;;;0.10;0.10;;;;;;;14.48;98.68;98248.09;5052452;28;20050;-70
2021/07/15 02:21:48;;;;;;;0.35;0.00;;;;;;;14.47;98.03;98254.63;5034808;28;20098;-70
2021/07/15 02:24:17;;;;;;;0.60;0.10;;;;;;;14.66;96.76;98274.34;5034993;28;20390;-71
2021/07/15 02:26:44;;;;;;;1.83;0.32;;;;;;;14.48;96.15;98258.97;5052697;28;20505;-71
2021/07/15 02:29:10;;;;;;;0.00;0.00;;;;;;;14.65;96.25;98285.50;5035045;28;20033;-71
2021/07/15 02:31:47;;;;;;;0.20;0.03;;;;;;;14.64;95.58;98260.13;5052412;28;20027;-70
2021/07/15 02:34:20;;;;;;;0.20;0.05;;;;;;;14.54;95.29;98235.47;5052698;28;20439;-70
2021/07/15 02:36:47;;;;;;;0.30;0.10;;;;;;;14.83;95.50;98288.03;5034661;28;20027;-71
2021/07/15 02:39:12;;;;;;;1.60;0.08;;;;;;;14.86;94.20;98281.25;5052580;28;20036;-71
2021/07/15 02:41:38;;;;;;;0.17;0.10;;;;;;;14.90;94.49;98274.25;5052424;28;20025;-71
2021/07/15 02:44:03;;;;;;;0.10;0.08;;;;;;;14.85;94.78;98261.34;5052247;28;20040;-71
2021/07/15 02:46:29;;;;;;;0.47;0.00;;;;;;;14.83;94.62;98257.25;5052525;28;20090;-71
2021/07/15 02:48:56;;;;;;;2.88;0.30;;;;;;;14.83;94.54;98268.13;5034111;28;20036;-71
2021/07/15 02:51:22;;;;;;;0.13;0.13;;;;;;;14.88;94.92;98287.28;5052296;28;20047;-71
2021/07/15 02:53:47;;;;;;;0.08;0.08;;;;;;;14.86;94.50;98284.00;5034272;28;20483;-71
2021/07/15 02:56:35;;;;;;;0.47;0.00;;;;;;;14.83;94.09;98287.19;5053037;28;20055;-71
2021/07/15 02:59:24;;;;;;;0.32;0.00;;;;;;;14.87;95.08;98275.56;5036864;28;20032;-70
2021/07/15 03:01:57;;;;;;;0.10;0.10;;;;;;;14.80;94.78;98274.03;5052200;28;20066;-71
2021/07/15 03:04:41;;;;;;;0.22;0.00;;;;;;;14.82;94.88;98285.53;5052077;28;20546;-71
2021/07/15 03:07:08;;;;;;;0.65;0.10;;;;;;;14.87;94.66;98299.25;5034571;28;20394;-71
2021/07/15 03:09:35;;;;;;;0.38;0.10;;;;;;;14.83;94.91;98300.81;5052565;28;20028;-71
2021/07/15 03:12:06;;;;;;;1.48;0.10;;;;;;;14.81;95.35;98292.88;5053710;28;20021;-71
2021/07/15 03:14:40;;;;;;;0.10;0.00;;;;;;;14.80;95.61;98295.84;5038257;28;20043;-71
2021/07/15 03:17:12;;;;;;;3.55;0.20;;;;;;;14.81;95.50;98283.88;5055723;28;20130;-71
2021/07/15 03:19:41;;;;;;;0.52;0.08;;;;;;;14.74;95.75;98275.03;5055923;28;20131;-71
2021/07/15 03:22:07;;;;;;;0.40;0.10;;;;;;;14.81;95.03;98292.88;5056143;28;20390;-71
2021/07/15 03:24:38;;;;;;;2.63;0.10;;;;;;;14.82;95.57;98285.53;5056396;28;20028;-71
2021/07/15 03:27:04;;;;;;;0.00;0.00;;;;;;;14.77;95.27;98283.53;5056164;28;20025;-71
2021/07/15 03:29:34;;;;;;;0.08;0.08;;;;;;;14.64;95.20;98267.50;5056341;28;20482;-71
2021/07/15 03:32:04;;;;;;;2.22;0.10;;;;;;;14.64;94.87;98276.47;5055332;28;20036;-71
2021/07/15 03:34:31;;;;;;;0.65;0.13;;;;;;;14.68;95.17;98274.13;5035670;28;20537;-72
2021/07/15 03:36:57;;;;;;;0.60;0.10;;;;;;;14.71;94.76;98289.97;5051574;28;20033;-72
2021/07/15 03:39:22;;;;;;;0.68;0.15;;;;;;;14.75;94.41;98284.84;5051705;28;20136;-72
2021/07/15 03:41:48;;;;;;;1.95;0.40;;;;;;;14.71;94.26;98280.97;5051431;28;20032;-71
2021/07/15 03:44:15;;;;;;;3.03;0.20;;;;;;;14.67;94.30;98284.19;5042431;28;20108;-75
2021/07/15 03:46:45;;;;;;;2.15;0.30;;;;;;;14.75;94.05;98298.47;5026533;28;20095;-74
2021/07/15 03:49:14;;;;;;;0.38;0.10;;;;;;;14.71;94.47;98300.84;5048426;28;20028;-73
2021/07/15 03:51:39;;;;;;;1.98;0.03;;;;;;;14.87;94.25;98307.41;5047088;28;20028;-73
2021/07/15 03:54:05;;;;;;;0.45;0.10;;;;;;;14.75;94.39;98279.41;5033609;28;20029;-74
2021/07/15 03:56:31;;;;;;;0.65;0.00;;;;;;;14.83;93.56;98287.19;5033413;28;20363;-74
2021/07/15 03:59:01;;;;;;;1.13;0.10;;;;;;;14.90;94.07;98287.84;5049729;28;20056;-77
2021/07/15 04:01:30;;;;;;;0.63;0.10;;;;;;;14.93;93.52;98276.47;5029382;28;20025;-76
2021/07/15 04:03:56;;;;;;;0.75;0.05;;;;;;;14.93;93.71;98281.91;5047151;28;20165;-76
2021/07/15 04:06:24;;;;;;;0.22;0.10;;;;;;;14.84;93.56;98278.78;5033903;28;20021;-74
2021/07/15 04:08:51;;;;;;;1.45;0.10;;;;;;;14.86;93.48;98281.25;5053164;28;20036;-74
2021/07/15 04:11:19;;;;;;;3.38;0.20;;;;;;;14.97;92.61;98288.53;5033722;28;20175;-76
2021/07/15 04:13:46;;;;;;;0.52;0.10;;;;;;;14.89;92.66;98262.53;5046785;28;20021;-78
2021/07/15 04:16:42;;;;;;;0.00;0.00;;;;;;;14.97;92.51;98283.09;5033707;28;20109;-71
2021/07/15 04:19:09;;;;;;;0.82;0.20;;;;;;;14.97;91.82;98293.16;5056128;28;20062;-78
2021/07/15 04:21:38;;;;;;;0.22;0.10;;;;;;;15.08;91.71;98301.28;5056743;28;20025;-73
2021/07/15 04:24:04;;;;;;;0.22;0.10;;;;;;;15.01;91.35;98289.72;5036052;28;20092;-72
2021/07/15 04:26:31;;;;;;;1.85;0.10;;;;;;;15.06;91.17;98292.53;5029260;28;20021;-73
2021/07/15 04:28:56;;;;;;;4.95;0.10;;;;;;;15.04;90.83;98283.78;5029947;28;20021;-73
2021/07/15 04:31:37;;;;;;;0.00;0.00;;;;;;;15.19;90.86;98301.47;5041280;28;20060;-72
2021/07/15 04:34:03;;;;;;;0.35;0.28;;;;;;;15.20;90.70;98290.31;5061084;28;20035;-70
2021/07/15 04:36:32;;;;;;;0.00;0.00;;;;;;;15.22;89.70;98281.88;5038386;28;20029;-72
2021/07/15 04:38:59;;;;;;;;;;;;;;;15.32;89.59;98290.25;5044026;28;20128;-71
2021/07/15 04:41:25;;;;;;;5.63;0.20;;;;;;;15.33;89.75;98292.72;5047875;28;19908;-71
2021/07/15 04:43:53;;;;;;;0.50;0.20;;;;;;;15.43;89.49;98285.78;5036016;28;20029;-70
2021/07/15 04:46:19;;;;;;;0.00;0.00;;;;;;;15.39;88.97;98279.19;5054202;28;20021;-74
2021/07/15 04:48:45;;;;;;;0.10;0.00;;;;;;;15.29;88.95;98263.47;5035975;28;20036;-69
2021/07/15 04:51:14;;;;;;;0.80;0.10;;;;;;;15.39;88.65;98280.00;5053822;28;20027;-69
2021/07/15 04:53:39;;;;;;;0.22;0.00;;;;;;;15.30;89.14;98267.84;5052343;28;20410;-69
2021/07/15 04:56:06;;;;;;;0.82;0.10;;;;;;;15.47;89.31;98292.41;5035901;28;20033;-74
2021/07/15 04:58:32;;;;;;;0.68;0.17;;;;;;;15.45;88.65;98279.00;5026238;28;20068;-73
2021/07/15 05:00:59;;;;;;;0.10;0.10;;;;;;;15.50;88.62;98284.53;5036442;28;20025;-71
2021/07/15 05:03:32;;;;;;;0.95;0.20;;;;;;;15.41;89.32;98283.31;5026216;28;20029;-73
2021/07/15 05:05:59;;;;;;;0.88;0.00;;;;;;;15.36;89.98;98280.50;5024778;28;20021;-72
2021/07/15 05:08:26;;;;;;;2.35;0.13;;;;;;;15.31;91.06;98283.97;5035588;28;20040;-72
2021/07/15 05:10:52;;;;;;;0.40;0.17;;;;;;;15.34;91.31;98278.00;5053241;28;20017;-71
2021/07/15 05:13:17;;;;;;;4.85;0.28;;;;;;;15.26;91.87;98272.97;5054142;28;20024;-71
2021/07/15 05:15:44;;;;;;;0.30;0.15;;;;;;;15.47;92.07;98293.22;5053977;28;20021;-74
2021/07/15 05:18:09;;;;;;;2.03;0.17;;;;;;;15.44;92.01;98299.19;5036497;28;20080;-72
2021/07/15 05:20:35;;;;;;;1.77;0.30;;;;;;;15.32;92.76;98290.25;5054172;28;20083;-72
2021/07/15 05:23:00;;;;;;;0.82;0.30;;;;;;;15.32;91.73;98277.44;5054158;28;20039;-77
2021/07/15 05:25:26;;;;;;;0.10;0.10;;;;;;;15.43;91.73;98283.91;5052645;28;20017;-73
2021/07/15 05:27:51;;;;;;;0.32;0.17;;;;;;;15.52;91.39;98287.03;5035594;28;20021;-72
2021/07/15 05:30:17;;;;;;;0.10;0.10;;;;;;;15.72;90.56;98294.75;5051156;28;20029;-73
2021/07/15 05:32:43;;;;;;;3.75;0.20;;;;;;;15.77;89.46;98295.66;5053501;28;20405;-70
2021/07/15 05:35:08;;;;;;;0.43;0.15;;;;;;;15.67;89.62;98295.47;5052733;28;20504;-72
2021/07/15 05:37:34;;;;;;;0.50;0.05;;;;;;;15.68;89.27;98275.28;5052242;28;20107;-73
2021/07/15 05:39:59;;;;;;;0.82;0.10;;;;;;;15.74;89.52;98273.50;5034618;28;20021;-72
2021/07/15 05:42:25;;;;;;;2.50;0.13;;;;;;;15.72;89.83;98289.31;5053659;28;20714;-75
2021/07/15 05:44:50;;;;;;;0.17;0.10;;;;;;;15.72;89.67;98284.66;5036145;28;20115;-75
2021/07/15 05:47:15;;;;;;;1.20;0.10;;;;;;;15.67;90.37;98302.81;5053914;28;20473;-76
2021/07/15 05:49:41;;;;;;;1.65;0.10;;;;;;;15.64;90.33;98298.69;5053196;28;20902;-76
2021/07/15 05:52:11;;;;;;;0.85;0.10;;;;;;;15.74;90.19;98314.41;5036120;28;20065;-73
2021/07/15 05:54:38;;;;;;;0.95;0.20;;;;;;;15.88;90.40;98323.91;5051673;28;20025;-75
2021/07/15 05:57:05;;;;;;;2.72;0.32;;;;;;;15.75;90.49;98322.34;5058639;28;20705;-72
2021/07/15 05:59:30;;;;;;;0.10;0.10;;;;;;;15.92;89.89;98322.31;5053431;28;20107;-73
2021/07/15 06:01:56;;;;;;;0.38;0.10;;;;;;;15.92;89.76;98326.94;5053174;28;20028;-77
2021/07/15 06:04:21;;;;;;;2.28;0.10;;;;;;;16.03;88.80;98317.00;5052792;28;20029;-71
2021/07/15 06:06:46;;;;;;;1.95;0.10;;;;;;;15.98;88.65;98293.19;5053160;28;20458;-72
2021/07/15 06:09:12;;;;;;;2.17;0.00;;;;;;;16.30;87.17;98330.78;5052098;28;20100;-74
2021/07/15 06:11:37;;;;;;;0.05;0.05;;;;;;;16.31;86.43;98314.13;5052293;28;20029;-75
2021/07/15 06:14:02;;;;;;;0.10;0.00;;;;;;;16.32;87.14;98315.81;5052436;28;20475;-75
2021/07/15 06:16:28;;;;;;;0.57;0.10;;;;;;;16.22;86.98;98299.28;5046909;28;20494;-71
2021/07/15 06:18:53;;;;;;;1.08;0.30;;;;;;;16.37;86.21;98323.22;5042189;28;20037;-71
2021/07/15 06:21:18;;;;;;;0.20;0.10;;;;;;;16.36;86.60;98322.41;5041467;28;20079;-76
2021/07/15 06:23:44;;;;;;;2.25;0.20;;;;;;;16.43;85.81;98314.03;5034379;28;20613;-76
2021/07/15 06:26:10;;;;;;;0.28;0.05;;;;;;;16.74;84.64;98301.59;5044647;28;20018;-77
2021/07/15 06:28:36;;;;;;;0.63;0.10;;;;;;;17.15;83.71;98323.06;5036039;28;20025;-79
2021/07/15 06:31:03;;;;;;;0.30;0.00;;;;;;;17.49;81.09;98337.34;5019744;28;20108;-75
2021/07/15 06:33:28;;;;;;;0.63;0.10;;;;;;;17.79;79.57;98312.22;5030880;28;20057;-78
2021/07/15 06:35:54;;;;;;;1.20;0.10;;;;;;;17.98;78.49;98315.34;5053700;28;20514;-74
2021/07/15 06:38:21;;;;;;;1.35;0.10;;;;;;;18.35;77.40;98328.16;5035007;28;20067;-74
2021/07/15 06:41:01;;;;;;;4.85;0.20;;;;;;;18.39;76.42;98332.00;5047631;28;20025;-70
2021/07/15 06:43:26;;;;;;;0.63;0.10;;;;;;;18.38;76.07;98327.63;5044867;28;20027;-74
2021/07/15 06:45:52;;;;;;;4.75;0.25;;;;;;;18.24;76.31;98340.16;5056196;28;20491;-72
2021/07/15 06:48:17;;;;;;;0.10;0.10;;;;;;;18.10;77.04;98318.72;5058521;28;20033;-73
2021/07/15 06:50:43;;;;;;;0.20;0.10;;;;;;;18.29;76.30;98332.78;5056614;28;20017;-77
2021/07/15 06:53:08;;;;;;;1.55;0.20;;;;;;;18.33;76.16;98316.63;5054329;28;20021;-78
2021/07/15 06:55:34;;;;;;;2.50;0.25;;;;;;;18.54;75.48;98329.34;5035334;28;20021;-72
2021/07/15 06:57:59;;;;;;;2.38;0.20;;;;;;;18.43;74.80;98329.56;5052912;28;20024;-74
2021/07/15 07:00:24;;;;;;;0.38;0.05;;;;;;;18.70;73.07;98310.22;5044118;28;20025;-75
2021/07/15 07:02:50;;;;;;;0.95;0.20;;;;;;;19.16;71.40;98311.22;5050097;28;20744;-75
2021/07/15 07:05:16;;;;;;;0.30;0.10;;;;;;;18.90;71.80;98315.81;5026607;28;20559;-74
2021/07/15 07:07:42;;;;;;;0.80;0.10;;;;;;;19.23;71.29;98322.75;5049137;28;20636;-74
2021/07/15 07:10:10;;;;;;;2.25;0.15;;;;;;;19.39;69.21;98309.88;5038642;28;20021;-73
2021/07/15 07:12:36;;;;;;;1.05;0.10;;;;;;;19.02;71.24;98308.19;5042868;28;20029;-74
2021/07/15 07:15:04;;;;;;;2.03;0.10;;;;;;;19.38;71.34;98327.44;5033185;28;20151;-74
2021/07/15 07:17:29;;;;;;;0.28;0.03;;;;;;;19.30;71.60;98316.19;5052568;28;20052;-74
2021/07/15 07:19:54;;;;;;;0.10;0.00;;;;;;;19.22;73.20;98317.53;5052223;28;20087;-75
2021/07/15 07:22:20;;;;;;;2.97;0.20;;;;;;;19.37;71.63;98322.22;5033927;28;20013;-77
2021/07/15 07:24:45;;;;;;;0.73;0.10;;;;;;;19.31;71.29;98307.69;5033664;28;20390;-76
2021/07/15 07:27:11;;;;;;;0.13;0.13;;;;;;;19.18;72.25;98313.72;5021813;28;20525;-78
2021/07/15 07:29:36;;;;;;;1.50;0.20;;;;;;;19.23;72.73;98321.91;5043508;28;20017;-77
2021/07/15 07:32:02;;;;;;;0.82;0.10;;;;;;;19.33;72.25;98307.41;5051999;28;20036;-80
2021/07/15 07:34:27;;;;;;;2.20;0.17;;;;;;;18.99;72.00;98308.72;5023816;28;20068;-75
2021/07/15 07:36:52;;;;;;;5.15;0.20;;;;;;;19.69;69.78;98319.25;5036408;28;20105;-74
2021/07/15 07:39:18;;;;;;;1.13;0.10;;;;;;;19.70;70.70;98329.13;5051794;28;20025;-74
2021/07/15 07:41:43;;;;;;;0.17;0.05;;;;;;;20.05;68.28;98317.31;5033834;28;20091;-76
2021/07/15 07:44:09;;;;;;;2.72;0.10;;;;;;;20.26;66.93;98345.56;5047923;28;20025;-68
2021/07/15 07:46:34;;;;;;;0.15;0.10;;;;;;;20.08;68.28;98337.91;5033277;28;20451;-74
2021/07/15 07:49:00;;;;;;;0.52;0.10;;;;;;;20.33;65.41;98299.41;5051267;28;20067;-74
2021/07/15 07:51:25;;;;;;;1.52;0.15;;;;;;;20.29;66.38;98341.44;5038980;28;20036;-71
2021/07/15 07:53:51;;;;;;;0.22;0.03;;;;;;;19.94;68.01;98345.88;5049132;28;20075;-70
2021/07/15 07:56:17;;;;;;;3.53;0.13;;;;;;;19.98;67.68;98338.72;5329948;22;20038;-74
2021/07/15 07:58:42;;;;;;;0.60;0.13;;;;;;;20.21;66.67;98345.56;5051345;28;20494;-74
2021/07/15 08:01:08;;;;;;;0.82;0.10;;;;;;;19.82;67.95;98348.91;5042019;28;20028;-75
2021/07/15 08:03:33;;;;;;;0.73;0.10;;;;;;;19.13;71.38;98360.31;5051933;28;20017;-76
2021/07/15 08:05:59;;;;;;;0.17;0.10;;;;;;;18.87;73.28;98352.00;5051403;28;20064;-76
2021/07/15 08:08:26;;;;;;;1.35;0.10;;;;;;;18.93;74.34;98353.66;5055178;28;20107;-74
2021/07/15 08:10:51;;;;;;;1.48;0.20;;;;;;;18.87;74.53;98349.25;5044418;28;20028;-71
2021/07/15 08:13:17;;;;;;;0.35;0.03;;;;;;;19.04;73.61;98354.50;5054062;28;20556;-75
2021/07/15 08:15:42;;;;;;;1.23;0.10;;;;;;;19.11;73.48;98366.06;5052934;28;20083;-74
2021/07/15 08:18:08;;;;;;;0.55;0.15;;;;;;;19.06;73.39;98366.03;5053731;28;20057;-74
2021/07/15 08:20:33;;;;;;;0.50;0.10;;;;;;;19.09;74.05;98364.69;5054028;28;20032;-72
2021/07/15 08:22:59;;;;;;;1.58;0.00;;;;;;;19.02;74.81;98374.00;5054170;28;20053;-72
2021/07/15 08:25:24;;;;;;;0.47;0.30;;;;;;;19.01;74.27;98364.09;5053841;28;20471;-75
2021/07/15 08:27:50;;;;;;;1.02;0.13;;;;;;;19.39;73.26;98374.91;5053637;28;20086;-75
2021/07/15 08:30:16;;;;;;;0.30;0.20;;;;;;;19.40;72.91;98352.69;5054291;28;20109;-73
2021/07/15 08:32:42;;;;;;;2.00;0.10;;;;;;;19.77;71.30;98370.84;5053600;28;20052;-72
2021/07/15 08:35:08;;;;;;;0.50;0.00;;;;;;;20.53;69.05;98371.88;5043608;28;20059;-71
2021/07/15 08:37:34;;;;;;;4.22;0.38;;;;;;;20.97;67.47;98352.78;5048428;28;20378;-78
2021/07/15 08:40:01;;;;;;;0.20;0.08;;;;;;;21.63;64.48;98370.84;5021617;28;20071;-76
2021/07/15 08:42:27;;;;;;;0.82;0.10;;;;;;;21.59;64.72;98372.53;5048170;28;20017;-76
2021/07/15 08:44:53;;;;;;;0.90;0.10;;;;;;;21.85;63.09;98375.94;5035894;28;20029;-76
2021/07/15 08:47:19;;;;;;;0.73;0.10;;;;;;;22.00;62.81;98380.47;5036060;28;20043;-75
2021/07/15 08:49:45;;;;;;;0.90;0.10;;;;;;;21.76;61.97;98382.31;5050594;28;20032;-77
2021/07/15 08:52:14;;;;;;;3.15;0.20;;;;;;;21.18;64.42;98371.94;5054562;28;20108;-75
2021/07/15 08:54:55;;;;;;;0.52;0.10;;;;;;;21.12;62.92;98382.13;5054651;28;20036;-77
2021/07/15 08:57:21;;;;;;;2.60;0.10;;;;;;;21.08;63.37;98377.47;5054148;28;20485;-75
2021/07/15 08:59:47;;;;;;;0.35;0.10;;;;;;;20.85;64.30;98387.19;5053814;28;20029;-75
2021/07/15 09:02:17;;;;;;;0.10;0.10;;;;;;;20.41;65.51;98388.69;5053440;28;20093;-76
2021/07/15 09:04:42;;;;;;;0.40;0.10;;;;;;;20.90;63.43;98382.50;5036723;28;20025;-76
2021/07/15 09:07:08;;;;;;;0.43;0.05;;;;;;;20.90;62.23;98384.44;5053727;28;20029;-73
2021/07/15 09:09:33;;;;;;;0.00;0.00;;;;;;;21.54;60.26;98378.06;5053735;28;20029;-76
2021/07/15 09:11:58;;;;;;;0.20;0.10;;;;;;;21.08;61.58;98383.78;5054630;28;20029;-75
2021/07/15 09:14:24;;;;;;;0.32;0.00;;;;;;;21.39;62.47;98397.44;5034957;28;20060;-74
2021/07/15 09:16:55;;;;;;;0.85;0.00;;;;;;;21.32;61.38;98396.88;5035168;28;20386;-73
2021/07/15 09:19:24;;;;;;;0.05;0.05;;;;;;;21.54;61.11;98397.34;5052361;28;20029;-74
2021/07/15 09:21:51;;;;;;;0.28;0.10;;;;;;;21.50;61.53;98398.19;5053531;28;20033;-74
2021/07/15 09:24:27;;;;;;;0.10;0.10;;;;;;;21.78;60.64;98400.19;5032354;28;20083;-74
2021/07/15 09:26:52;;;;;;;0.10;0.10;;;;;;;22.00;60.76;98385.16;5050096;28;20033;-75
2021/07/15 09:29:18;;;;;;;0.20;0.10;;;;;;;22.59;59.51;98397.88;5045742;28;20036;-74
2021/07/15 09:31:50;;;;;;;0.30;0.10;;;;;;;22.79;57.43;98407.84;5043631;28;20107;-77
2021/07/15 09:34:16;;;;;;;0.82;0.08;;;;;;;22.68;58.27;98404.38;5030778;28;20495;-76
2021/07/15 09:36:41;;;;;;;0.20;0.10;;;;;;;22.49;59.37;98397.97;5044669;28;20108;-76
2021/07/15 09:39:16;;;;;;;2.42;0.00;;;;;;;22.95;59.15;98405.72;5035820;28;20059;-72
2021/07/15 09:41:43;;;;;;;1.00;0.13;;;;;;;23.31;56.50;98406.13;5053379;28;20078;-76
2021/07/15 09:44:08;;;;;;;0.63;0.00;;;;;;;23.17;54.61;98396.94;5053088;28;20056;-76
2021/07/15 09:46:36;;;;;;;2.63;0.00;;;;;;;23.60;54.14;98397.69;5051712;28;20644;-74
2021/07/15 09:49:06;;;;;;;1.85;0.20;;;;;;;25.58;50.48;98402.69;5048913;28;20078;-71
2021/07/15 09:51:42;;;;;;;0.55;0.10;;;;;;;28.51;45.18;98393.31;5050680;28;20017;-71
2021/07/15 09:54:08;;;;;;;0.00;0.00;;;;;;;28.23;44.08;98392.84;5050368;28;20017;-76
2021/07/15 09:56:45;;;;;;;1.98;0.10;;;;;;;29.22;42.77;98389.09;5051598;28;20099;-70
2021/07/15 09:59:11;;;;;;;0.45;0.00;;;;;;;30.01;41.94;98381.00;5042912;28;20025;-72
2021/07/15 10:01:43;;;;;;;2.08;0.00;;;;;;;29.61;40.27;98384.25;5048395;28;20493;-68
2021/07/15 10:04:09;;;;;;;0.10;0.00;;;;;;;28.26;43.91;98388.59;5052189;28;20032;-69
2021/07/15 10:06:45;;;;;;;2.08;0.20;;;;;;;27.32;46.57;98389.03;5050412;28;20119;-68
2021/07/15 10:09:39;;;;;;;0.55;0.05;;;;;;;26.19;48.08;98392.09;5050830;28;20154;-69
2021/07/15 10:12:24;;;;;;;0.00;0.00;;;;;;;27.75;45.82;98377.97;5003145;28;20041;-68
2021/07/15 10:14:49;;;;;;;0.00;0.00;;;;;;;25.99;46.92;98389.81;5050708;28;20094;-67
2021/07/15 10:17:15;;;;;;;0.25;0.10;;;;;;;25.90;47.72;98391.72;5044485;28;20037;-71
2021/07/15 10:19:40;;;;;;;1.85;0.10;;;;;;;26.67;47.98;98382.25;5048834;28;20029;-70
2021/07/15 10:22:08;;;;;;;0.68;0.10;;;;;;;27.26;46.25;98391.16;5049577;28;20100;-71
2021/07/15 10:24:34;;;;;;;0.20;0.10;;;;;;;28.55;45.67;98387.88;5049045;28;20437;-71
2021/07/15 10:27:06;;;;;;;1.38;0.20;;;;;;;29.11;43.40;98371.13;5048054;28;20526;-71
2021/07/15 10:29:35;;;;;;;0.77;0.10;;;;;;;31.10;37.90;98371.25;5048397;28;20045;-71
2021/07/15 10:32:02;;;;;;;0.20;0.10;;;;;;;33.80;34.94;98385.78;5048125;28;20048;-71
2021/07/15 10:34:28;;;;;;;0.30;0.10;;;;;;;31.98;35.16;98379.94;5048732;28;20116;-72
2021/07/15 10:36:57;;;;;;;0.03;0.00;;;;;;;31.43;36.21;98384.28;5048528;28;20119;-72
2021/07/15 10:39:25;;;;;;;0.20;0.05;;;;;;;31.75;36.99;98382.44;5049310;28;20374;-71
2021/07/15 10:41:54;;;;;;;0.05;0.00;;;;;;;30.83;37.46;98371.94;5048351;28;20163;-71
2021/07/15 10:44:20;;;;;;;0.80;0.20;;;;;;;30.06;38.47;98378.00;5046694;28;20033;-72
2021/07/15 10:46:47;;;;;;;0.10;0.08;;;;;;;31.15;38.58;98381.34;5048610;28;20425;-70
2021/07/15 10:49:12;;;;;;;0.00;0.00;;;;;;;30.09;37.83;98382.88;5047496;28;20036;-70
2021/07/15 10:51:42;;;;;;;0.05;0.00;;;;;;;29.45;42.11;98396.00;5048458;28;20618;-70
2021/07/15 10:54:07;;;;;;;0.60;0.10;;;;;;;28.34;44.38;98390.53;5048663;28;20021;-72
2021/07/15 10:56:34;;;;;;;0.70;0.10;;;;;;;27.24;45.59;98387.88;5048134;28;20041;-71
2021/07/15 10:59:00;;;;;;;0.70;0.20;;;;;;;28.09;44.67;98381.91;5045609;28;20036;-70
2021/07/15 11:04:08;;;;;;;0.20;0.10;;;;;;;27.78;43.28;98378.47;5047779;28;20123;-69
2021/07/15 11:06:38;;;;;;;0.52;0.20;;;;;;;27.16;42.92;98377.53;5046763;28;20052;-68
2021/07/15 11:09:04;;;;;;;1.17;0.17;;;;;;;26.94;44.26;98378.47;5046865;28;20037;-69
2021/07/15 11:11:33;;;;;;;0.10;0.00;;;;;;;26.63;46.51;98375.72;5047838;28;20086;-70
2021/07/15 11:13:59;;;;;;;0.30;0.10;;;;;;;26.69;46.05;98380.00;5048197;28;20037;-70
2021/07/15 11:16:47;;;;;;;0.30;0.03;;;;;;;26.18;47.77;98387.69;5047850;28;20083;-69
2021/07/15 11:19:48;;;;;;;0.65;0.25;;;;;;;25.76;48.75;98389.00;5048338;28;20029;-69
2021/07/15 11:22:38;;;;;;;0.25;0.10;;;;;;;25.80;50.32;98381.66;5047031;28;20044;-68
2021/07/15 11:25:18;;;;;;;2.58;0.17;;;;;;;25.74;49.04;98388.47;5047297;28;20021;-69
2021/07/15 11:27:49;;;;;;;2.47;0.20;;;;;;;25.20;50.51;98393.81;5047767;28;20104;-69
2021/07/15 11:30:33;;;;;;;3.05;0.20;;;;;;;25.54;50.97;98396.16;5047247;28;20039;-70
2021/07/15 11:33:18;;;;;;;0.13;0.10;;;;;;;26.33;49.21;98391.19;5030585;28;20040;-69
2021/07/15 11:35:55;;;;;;;0.20;0.20;;;;;;;26.60;46.67;98398.56;5044795;28;20029;-69
2021/07/15 11:38:29;;;;;;;0.13;0.10;;;;;;;28.59;44.61;98402.78;5029418;28;20111;-70
2021/07/15 11:41:01;;;;;;;0.32;0.10;;;;;;;28.63;42.53;98398.97;5033449;28;20035;-69
2021/07/15 11:43:31;;;;;;;1.38;0.10;;;;;;;30.38;40.87;98395.09;5049798;28;20792;-69